Time;durP1;ratioP1;P1;durP2;ratioP2;P2;SDS_P1;SDS_P2;PMS_P1;PMS_P2;Temp;Humidity;BMP_temperature;BMP_pressure;BME280_temperature;BME280_humidity;BME280_pressure;Samples;Min_cycle;Max_cycle;Signal;HPM_P1;HPM_P2
2021/12/23 00:01:13;;;;;;;19.75;11.35;;;-1.20;99.90;;;;;;5043269;28;20091;-85
2021/12/23 00:03:38;;;;;;;19.63;11.38;;;-0.40;99.90;;;;;;5011559;28;20045;-85
2021/12/23 00:06:04;;;;;;;22.42;12.30;;;-1.10;99.90;;;;;;4979890;28;20038;-86
2021/12/23 00:08:30;;;;;;;19.52;10.88;;;-1.20;99.90;;;;;;4959390;28;20042;-86
2021/12/23 00:10:56;;;;;;;18.90;11.52;;;-1.30;99.90;;;;;;4982680;28;20119;-86
2021/12/23 00:13:22;;;;;;;21.33;11.60;;;0.30;99.90;;;;;;4979473;28;20469;-85
2021/12/23 00:23:51;;;;;;;21.70;11.90;;;-1.10;99.90;;;;;;5010740;28;20041;-85
2021/12/23 00:26:17;;;;;;;19.30;11.00;;;0.80;99.90;;;;;;4980477;28;20041;-85
2021/12/23 00:28:42;;;;;;;20.80;11.75;;;-1.10;99.90;;;;;;4978051;28;20120;-85
2021/12/23 00:31:08;;;;;;;22.05;12.00;;;-1.10;99.90;;;;;;4991705;28;20053;-85
2021/12/23 00:33:36;;;;;;;21.65;12.40;;;-1.10;99.90;;;;;;4994486;28;20049;-85
2021/12/23 00:36:04;;;;;;;21.95;12.68;;;0.00;99.90;;;;;;4979813;28;20037;-85
2021/12/23 00:38:35;;;;;;;21.65;12.23;;;-1.00;99.90;;;;;;5011359;28;20053;-85
2021/12/23 00:41:04;;;;;;;21.98;13.02;;;-0.30;99.90;;;;;;4978153;28;20037;-85
2021/12/23 00:43:31;;;;;;;22.90;12.50;;;-1.00;99.90;;;;;;4981692;28;20498;-85
2021/12/23 00:45:58;;;;;;;21.88;12.98;;;-1.00;99.90;;;;;;5015157;28;20048;-86
2021/12/23 00:48:25;;;;;;;23.25;12.35;;;-0.60;99.90;;;;;;4994377;28;20466;-85
2021/12/23 00:50:51;;;;;;;23.52;13.20;;;-1.00;99.90;;;;;;4978988;28;20572;-85
2021/12/23 00:53:19;;;;;;;20.40;12.43;;;-0.60;99.90;;;;;;4979211;28;20068;-85
2021/12/23 00:55:51;;;;;;;19.45;11.90;;;0.70;99.90;;;;;;4980493;28;20029;-85
2021/12/23 00:58:18;;;;;;;22.63;12.90;;;-0.90;99.90;;;;;;4979034;28;20034;-85
2021/12/23 01:00:44;;;;;;;23.60;13.70;;;-0.90;99.90;;;;;;4993329;28;20073;-86
2021/12/23 01:03:11;;;;;;;20.38;11.82;;;-0.20;99.90;;;;;;4982398;28;20072;-86
2021/12/23 01:05:37;;;;;;;20.35;12.02;;;-0.90;99.90;;;;;;5012389;28;20141;-85
2021/12/23 01:08:03;;;;;;;20.50;12.45;;;1.00;99.90;;;;;;5011335;28;20048;-85
2021/12/23 01:10:29;;;;;;;21.95;12.52;;;-0.90;99.90;;;;;;5013954;28;20044;-86
2021/12/23 01:12:59;;;;;;;19.50;11.90;;;-0.80;99.90;;;;;;4998005;28;20034;-85
2021/12/23 01:20:27;;;;;;;20.05;12.23;;;-0.70;99.90;;;;;;5030327;28;20052;-86
2021/12/23 01:23:00;;;;;;;22.70;13.05;;;-0.60;99.90;;;;;;5027441;28;20049;-85
2021/12/23 01:25:26;;;;;;;23.42;12.05;;;-0.70;99.90;;;;;;5027102;28;20071;-86
2021/12/23 01:27:52;;;;;;;22.55;12.38;;;-0.70;99.90;;;;;;4997235;28;20048;-86
2021/12/23 01:30:19;;;;;;;20.70;12.80;;;0.20;99.90;;;;;;5013237;28;20080;-86
2021/12/23 01:32:47;;;;;;;21.13;12.00;;;-0.70;99.90;;;;;;4997601;28;20468;-86
2021/12/23 01:35:14;;;;;;;22.27;12.65;;;-0.50;99.90;;;;;;5013282;28;20037;-86
2021/12/23 01:37:40;;;;;;;23.55;12.25;;;-0.60;99.90;;;;;;5013598;28;20482;-86
2021/12/23 01:40:07;;;;;;;21.25;12.82;;;-0.60;99.90;;;;;;5029854;28;20112;-85
2021/12/23 01:42:33;;;;;;;20.20;12.38;;;-0.60;99.90;;;;;;4997308;28;20072;-85
2021/12/23 01:44:59;;;;;;;22.88;12.63;;;-0.60;99.90;;;;;;5012685;28;20043;-86
2021/12/23 01:47:25;;;;;;;23.13;13.07;;;-0.50;99.90;;;;;;4997487;28;20046;-85
2021/12/23 01:49:51;;;;;;;22.55;12.95;;;-0.60;99.90;;;;;;4996878;28;20123;-86
2021/12/23 01:52:17;;;;;;;21.45;11.43;;;-0.30;99.90;;;;;;5013344;28;20037;-85
2021/12/23 01:54:43;;;;;;;22.38;12.82;;;-0.60;99.90;;;;;;5024702;28;20037;-85
2021/12/23 01:57:12;;;;;;;21.40;12.88;;;-0.60;99.90;;;;;;5012149;28;20033;-86
2021/12/23 01:59:38;;;;;;;22.45;12.85;;;-0.60;99.90;;;;;;4995346;28;20172;-85
2021/12/23 02:02:04;;;;;;;22.55;13.38;;;-0.60;99.90;;;;;;4996420;28;20112;-86
2021/12/23 02:04:29;;;;;;;23.23;13.10;;;-0.60;99.90;;;;;;4985251;28;20546;-85
2021/12/23 02:06:55;;;;;;;24.63;12.88;;;-0.60;99.90;;;;;;4974509;28;20053;-86
2021/12/23 02:09:21;;;;;;;22.55;12.95;;;-0.20;99.90;;;;;;4995123;28;20053;-85
2021/12/23 02:11:47;;;;;;;22.10;12.73;;;-0.60;99.90;;;;;;5005129;28;20065;-85
2021/12/23 02:14:13;;;;;;;20.08;11.88;;;-0.60;99.90;;;;;;5012278;28;20115;-85
2021/12/23 02:16:39;;;;;;;21.25;12.45;;;-0.50;99.90;;;;;;4987584;28;20439;-86
2021/12/23 02:19:20;;;;;;;22.10;12.13;;;-0.60;99.90;;;;;;4988692;28;20159;-86
2021/12/23 02:21:47;;;;;;;21.55;12.57;;;-0.60;99.90;;;;;;5029268;28;20113;-85
2021/12/23 02:24:14;;;;;;;20.85;12.20;;;0.60;99.90;;;;;;4992681;28;20541;-85
2021/12/23 02:26:41;;;;;;;20.92;12.70;;;-0.40;99.90;;;;;;5022872;28;20041;-85
2021/12/23 02:29:09;;;;;;;23.70;13.68;;;-0.40;99.90;;;;;;5027489;28;20155;-85
2021/12/23 02:31:36;;;;;;;22.70;12.85;;;-0.40;99.90;;;;;;5013046;28;20502;-85
2021/12/23 02:34:03;;;;;;;21.27;12.93;;;-0.30;99.90;;;;;;5012457;28;20124;-86
2021/12/23 02:36:30;;;;;;;23.02;12.77;;;-0.30;99.90;;;;;;5012808;28;20030;-86
2021/12/23 02:39:00;;;;;;;22.17;12.55;;;-0.30;99.90;;;;;;4996513;28;20042;-85
2021/12/23 02:41:26;;;;;;;23.52;12.82;;;-0.30;99.90;;;;;;5020728;28;20034;-86
2021/12/23 02:43:52;;;;;;;24.20;13.20;;;1.20;99.90;;;;;;4992980;28;20034;-86
2021/12/23 02:46:19;;;;;;;23.42;12.65;;;-0.10;99.90;;;;;;4993748;28;20050;-86
2021/12/23 02:48:46;;;;;;;22.40;12.98;;;0.10;99.90;;;;;;4996367;28;20069;-85
2021/12/23 02:51:14;;;;;;;22.48;12.68;;;0.20;99.90;;;;;;5012335;28;20562;-85
2021/12/23 02:53:41;;;;;;;22.17;13.30;;;0.10;99.90;;;;;;5028431;28;20490;-86
2021/12/23 02:56:09;;;;;;;21.42;12.70;;;-0.20;99.90;;;;;;5014877;28;20029;-85
2021/12/23 02:58:36;;;;;;;21.98;12.85;;;-0.10;99.90;;;;;;5012559;28;20044;-86
2021/12/23 03:01:04;;;;;;;21.80;13.02;;;-0.10;99.90;;;;;;4991230;28;20121;-85
2021/12/23 03:03:30;;;;;;;22.92;12.88;;;-0.10;99.90;;;;;;5011658;28;20045;-85
2021/12/23 03:05:57;;;;;;;23.38;13.07;;;1.60;99.90;;;;;;5012157;28;20057;-86
2021/12/23 03:08:32;;;;;;;22.88;13.75;;;-0.10;99.90;;;;;;4999030;28;20052;-85
2021/12/23 03:10:58;;;;;;;22.77;12.98;;;-0.20;99.90;;;;;;5011946;28;20518;-85
2021/12/23 03:13:25;;;;;;;22.90;13.10;;;-0.20;99.90;;;;;;5011594;28;20045;-86
2021/12/23 03:15:51;;;;;;;24.83;13.88;;;-0.30;99.90;;;;;;5006714;28;20091;-85
2021/12/23 03:18:16;;;;;;;21.67;12.68;;;-0.20;99.90;;;;;;4992234;28;20455;-85
2021/12/23 03:20:42;;;;;;;21.60;12.43;;;-0.20;99.90;;;;;;5028398;28;20064;-86
2021/12/23 03:23:08;;;;;;;23.08;12.45;;;-0.20;99.90;;;;;;5024213;28;20037;-85
2021/12/23 03:25:34;;;;;;;22.98;12.80;;;-0.20;99.90;;;;;;4992723;28;20099;-86
2021/12/23 03:27:59;;;;;;;21.40;12.68;;;-0.20;99.90;;;;;;5010869;28;20046;-85
2021/12/23 03:30:25;;;;;;;23.15;12.80;;;-0.20;99.90;;;;;;4981872;28;20128;-85
2021/12/23 03:32:51;;;;;;;22.17;12.50;;;-0.20;99.90;;;;;;4977129;28;20121;-85
2021/12/23 03:35:17;;;;;;;22.73;12.52;;;-0.20;99.90;;;;;;4995008;28;20445;-85
2021/12/23 03:37:44;;;;;;;20.48;12.43;;;-0.20;99.90;;;;;;5011556;28;20326;-85
2021/12/23 03:40:10;;;;;;;21.17;12.50;;;-0.10;99.90;;;;;;4994929;28;20025;-85
2021/12/23 03:42:36;;;;;;;24.27;12.43;;;-0.10;99.90;;;;;;5011873;28;20116;-85
2021/12/23 03:45:03;;;;;;;21.45;12.40;;;-0.20;99.90;;;;;;5028314;28;20038;-85
2021/12/23 03:47:29;;;;;;;19.77;11.95;;;-0.20;99.90;;;;;;4991917;28;20376;-85
2021/12/23 03:49:55;;;;;;;22.92;12.80;;;-0.20;99.90;;;;;;4993148;28;20032;-86
2021/12/23 03:52:20;;;;;;;23.25;12.68;;;-0.20;99.90;;;;;;5010202;28;20449;-86
2021/12/23 03:54:46;;;;;;;23.95;13.35;;;-0.10;99.90;;;;;;5026463;28;20194;-85
2021/12/23 03:57:12;;;;;;;21.65;12.80;;;-0.20;99.90;;;;;;4989604;28;20037;-85
2021/12/23 03:59:38;;;;;;;23.80;12.88;;;1.70;99.90;;;;;;4979871;28;20033;-85
2021/12/23 04:02:04;;;;;;;22.02;12.88;;;1.60;99.90;;;;;;4991797;28;20033;-85
2021/12/23 04:04:30;;;;;;;21.55;12.82;;;-0.10;99.90;;;;;;4999908;28;20525;-85
2021/12/23 04:06:56;;;;;;;23.77;13.18;;;-0.10;99.90;;;;;;5000116;28;20088;-85
2021/12/23 04:09:22;;;;;;;20.90;11.82;;;0.00;99.90;;;;;;5011001;28;20107;-85
2021/12/23 04:11:47;;;;;;;21.60;12.55;;;-0.10;99.90;;;;;;4993407;28;20033;-85
2021/12/23 04:14:13;;;;;;;21.35;11.98;;;-0.10;99.90;;;;;;4994137;28;20124;-85
2021/12/23 04:16:39;;;;;;;20.58;12.35;;;1.70;99.90;;;;;;4993813;28;20038;-86
2021/12/23 04:19:08;;;;;;;21.35;12.55;;;0.10;99.90;;;;;;4977353;28;20056;-86
2021/12/23 04:21:34;;;;;;;20.88;12.80;;;1.70;99.90;;;;;;4995281;28;20080;-86
2021/12/23 04:24:00;;;;;;;22.20;13.18;;;0.00;99.90;;;;;;5009970;28;20038;-85
2021/12/23 04:26:26;;;;;;;22.60;12.57;;;0.10;99.90;;;;;;5009161;28;20183;-86
2021/12/23 04:28:52;;;;;;;19.85;11.57;;;0.20;99.90;;;;;;4978140;28;20041;-86
2021/12/23 04:31:22;;;;;;;19.75;12.27;;;0.20;99.90;;;;;;4977657;28;20042;-86
2021/12/23 04:33:50;;;;;;;20.27;12.52;;;1.50;99.90;;;;;;5027321;28;20060;-86
2021/12/23 04:36:17;;;;;;;19.85;12.00;;;1.70;99.90;;;;;;4996310;28;20037;-86
2021/12/23 04:38:44;;;;;;;21.33;12.77;;;0.70;99.90;;;;;;4979754;28;20117;-86
2021/12/23 04:41:10;;;;;;;20.15;12.25;;;0.10;99.90;;;;;;5014192;28;20033;-85
2021/12/23 04:43:37;;;;;;;21.38;11.73;;;0.20;99.90;;;;;;5014302;28;20069;-85
2021/12/23 04:46:03;;;;;;;21.02;12.52;;;0.60;99.90;;;;;;4997519;28;20033;-86
2021/12/23 04:48:29;;;;;;;22.15;11.65;;;0.20;99.90;;;;;;4999008;28;20126;-86
2021/12/23 04:50:55;;;;;;;21.50;12.25;;;0.20;99.90;;;;;;5015486;28;20045;-85
2021/12/23 04:53:21;;;;;;;23.73;12.77;;;0.10;99.90;;;;;;4991403;28;20510;-85
2021/12/23 04:55:47;;;;;;;20.48;12.10;;;1.50;99.90;;;;;;5010086;28;20037;-85
2021/12/23 04:58:13;;;;;;;20.42;12.73;;;0.30;99.90;;;;;;4979135;28;20030;-86
2021/12/23 05:00:38;;;;;;;21.00;11.90;;;0.20;99.90;;;;;;5012392;28;20111;-85
2021/12/23 05:03:04;;;;;;;21.58;11.65;;;0.20;99.90;;;;;;4989773;28;20049;-86
2021/12/23 05:05:30;;;;;;;21.27;12.63;;;0.20;99.90;;;;;;5014177;28;20053;-85
2021/12/23 05:07:57;;;;;;;21.65;12.18;;;0.20;99.90;;;;;;4991876;28;20549;-85
2021/12/23 05:10:22;;;;;;;22.05;12.40;;;0.20;99.90;;;;;;4979947;28;20049;-86
2021/12/23 05:12:48;;;;;;;21.42;12.38;;;0.20;99.90;;;;;;4996339;28;20044;-86
2021/12/23 05:15:16;;;;;;;22.88;12.93;;;1.20;99.90;;;;;;5014602;28;20441;-86
2021/12/23 05:17:43;;;;;;;23.45;13.15;;;0.20;99.90;;;;;;5009772;28;20129;-85
2021/12/23 05:20:11;;;;;;;23.10;13.60;;;1.60;99.90;;;;;;5013253;28;20168;-85
2021/12/23 05:22:37;;;;;;;23.73;12.48;;;0.30;99.90;;;;;;5013639;28;20069;-86
2021/12/23 05:25:05;;;;;;;20.38;12.05;;;0.30;99.90;;;;;;4997081;28;20072;-86
2021/12/23 05:27:31;;;;;;;23.23;12.90;;;0.30;99.90;;;;;;5029959;28;20376;-86
2021/12/23 05:29:56;;;;;;;20.88;12.43;;;0.50;99.90;;;;;;4995578;28;20620;-85
2021/12/23 05:32:23;;;;;;;24.25;12.80;;;0.20;99.90;;;;;;5013556;28;20319;-86
2021/12/23 05:34:49;;;;;;;19.75;12.10;;;2.00;99.90;;;;;;5012042;28;20045;-85
2021/12/23 05:37:15;;;;;;;23.92;13.25;;;1.70;99.90;;;;;;4997662;28;20128;-86
2021/12/23 05:39:40;;;;;;;21.52;12.50;;;0.30;99.90;;;;;;5013222;28;20045;-85
2021/12/23 05:42:06;;;;;;;22.20;12.20;;;0.30;99.90;;;;;;4995133;28;20213;-86
2021/12/23 05:44:32;;;;;;;22.17;13.00;;;0.30;99.90;;;;;;4992742;28;20041;-86
2021/12/23 05:46:58;;;;;;;20.35;11.98;;;1.70;99.90;;;;;;4976983;28;20045;-86
2021/12/23 05:49:24;;;;;;;22.80;12.43;;;0.30;99.90;;;;;;5005605;28;20506;-86
2021/12/23 05:51:50;;;;;;;21.20;12.40;;;0.30;99.90;;;;;;5013003;28;20112;-86
2021/12/23 05:54:15;;;;;;;20.83;12.02;;;0.30;99.90;;;;;;5012514;28;20152;-85
2021/12/23 05:56:41;;;;;;;20.42;11.95;;;0.30;99.90;;;;;;4979411;28;20030;-86
2021/12/23 05:59:07;;;;;;;24.65;12.82;;;0.30;99.90;;;;;;5012822;28;20038;-86
2021/12/23 06:01:33;;;;;;;23.63;12.88;;;0.30;99.90;;;;;;5031022;28;20521;-86
2021/12/23 06:03:58;;;;;;;21.30;12.65;;;0.30;99.90;;;;;;4985401;28;20052;-86
2021/12/23 06:06:24;;;;;;;21.77;12.43;;;0.30;99.90;;;;;;4997808;28;20418;-86
2021/12/23 06:08:50;;;;;;;23.70;13.13;;;0.30;99.90;;;;;;4979454;28;20041;-87
2021/12/23 06:11:16;;;;;;;22.48;13.20;;;0.30;99.90;;;;;;4981381;28;20045;-86
2021/12/23 06:13:41;;;;;;;20.70;11.77;;;1.30;99.90;;;;;;4982936;28;20067;-86
2021/12/23 06:16:07;;;;;;;21.20;12.05;;;2.30;99.90;;;;;;4980869;28;20045;-87
2021/12/23 06:18:33;;;;;;;21.63;12.88;;;0.30;99.90;;;;;;4999948;28;20134;-86
2021/12/23 06:20:58;;;;;;;24.13;12.77;;;0.40;99.90;;;;;;4980659;28;20037;-87
2021/12/23 06:23:25;;;;;;;22.25;12.32;;;0.30;99.90;;;;;;4981689;28;20045;-86
2021/12/23 06:25:51;;;;;;;23.45;11.98;;;0.40;99.90;;;;;;4996152;28;20190;-87
2021/12/23 06:28:16;;;;;;;21.65;12.05;;;0.40;99.90;;;;;;4996735;28;20084;-87
2021/12/23 06:30:42;;;;;;;21.65;11.98;;;0.40;99.90;;;;;;4963986;28;20195;-87
2021/12/23 06:33:08;;;;;;;20.08;11.95;;;0.40;99.90;;;;;;4997116;28;20049;-87
2021/12/23 06:35:34;;;;;;;22.23;13.00;;;0.40;99.90;;;;;;4981526;28;20034;-87
2021/12/23 06:38:05;;;;;;;21.27;12.38;;;0.40;99.90;;;;;;5013704;28;20386;-87
2021/12/23 06:40:31;;;;;;;20.95;12.90;;;0.50;99.90;;;;;;4997102;28;20494;-86
2021/12/23 06:42:57;;;;;;;21.88;12.73;;;0.50;99.90;;;;;;4977726;28;20081;-87
2021/12/23 06:45:23;;;;;;;22.85;13.45;;;0.50;99.90;;;;;;4962328;28;20064;-87
2021/12/23 06:47:48;;;;;;;21.63;12.35;;;0.50;99.90;;;;;;4997318;28;20120;-86
2021/12/23 06:50:20;;;;;;;20.88;12.35;;;0.50;99.90;;;;;;4996792;28;20490;-86
2021/12/23 06:52:46;;;;;;;24.13;13.60;;;0.50;99.90;;;;;;4991279;28;20456;-86
2021/12/23 06:55:13;;;;;;;23.55;13.85;;;0.50;99.90;;;;;;5014007;28;20465;-87
2021/12/23 06:57:40;;;;;;;23.52;13.85;;;0.60;99.90;;;;;;4983289;28;20038;-85
2021/12/23 07:00:09;;;;;;;21.50;12.80;;;1.10;99.90;;;;;;4983100;28;20072;-88
2021/12/23 07:02:38;;;;;;;20.88;12.52;;;0.60;99.90;;;;;;4991377;28;20072;-84
2021/12/23 07:05:05;;;;;;;23.02;13.95;;;0.60;99.90;;;;;;4989497;28;20049;-84
2021/12/23 07:07:40;;;;;;;21.20;13.02;;;0.60;99.90;;;;;;4992086;28;20045;-84
2021/12/23 07:10:10;;;;;;;23.65;13.57;;;0.70;99.90;;;;;;5009760;28;20040;-85
2021/12/23 07:12:36;;;;;;;24.23;13.30;;;0.70;99.90;;;;;;5011713;28;20457;-84
2021/12/23 07:15:02;;;;;;;23.13;13.80;;;1.70;99.90;;;;;;5006933;28;20041;-84
2021/12/23 07:17:28;;;;;;;22.63;12.98;;;0.70;99.90;;;;;;4989931;28;20421;-83
2021/12/23 07:19:53;;;;;;;24.00;14.05;;;2.20;99.90;;;;;;4975201;28;20116;-85
2021/12/23 07:22:19;;;;;;;24.90;13.57;;;0.90;99.90;;;;;;4978854;28;20037;-87
2021/12/23 07:24:45;;;;;;;25.50;14.52;;;0.80;99.90;;;;;;4994267;28;20049;-86
2021/12/23 07:27:10;;;;;;;24.15;14.05;;;0.70;99.90;;;;;;4992851;28;20034;-85
2021/12/23 07:29:36;;;;;;;24.48;14.32;;;0.70;99.90;;;;;;5021040;28;20486;-84
2021/12/23 07:32:04;;;;;;;23.60;14.35;;;0.70;99.90;;;;;;4994738;28;20041;-86
2021/12/23 07:34:31;;;;;;;24.83;15.05;;;0.70;99.90;;;;;;4988414;28;20068;-85
2021/12/23 07:36:57;;;;;;;26.98;15.48;;;0.80;99.90;;;;;;5008791;28;20427;-84
2021/12/23 07:39:23;;;;;;;26.17;15.63;;;0.80;99.90;;;;;;4993293;28;20029;-85
2021/12/23 07:41:48;;;;;;;25.48;15.73;;;2.40;99.90;;;;;;5007199;28;20072;-85
2021/12/23 07:44:20;;;;;;;25.02;15.75;;;0.80;99.90;;;;;;5018850;28;20033;-85
2021/12/23 07:46:48;;;;;;;26.58;15.98;;;1.70;99.90;;;;;;5013055;28;20057;-85
2021/12/23 07:49:14;;;;;;;26.98;16.10;;;1.50;99.90;;;;;;5001381;28;20387;-85
2021/12/23 07:51:40;;;;;;;25.92;16.17;;;0.80;99.90;;;;;;5008128;28;20137;-86
2021/12/23 07:54:06;;;;;;;26.33;15.70;;;0.80;99.90;;;;;;4985470;28;20171;-85
2021/12/23 07:56:32;;;;;;;26.63;17.38;;;0.80;99.90;;;;;;5022747;28;20060;-86
2021/12/23 07:58:58;;;;;;;26.10;15.27;;;0.80;99.90;;;;;;5022237;28;20033;-85
2021/12/23 08:01:24;;;;;;;26.05;16.10;;;0.80;99.90;;;;;;4991487;28;20037;-84
2021/12/23 08:03:50;;;;;;;27.08;16.58;;;0.80;99.90;;;;;;5005321;28;20034;-85
2021/12/23 08:06:16;;;;;;;27.52;15.80;;;0.80;99.90;;;;;;5010988;28;20057;-87
2021/12/23 08:08:42;;;;;;;27.15;16.67;;;0.80;99.90;;;;;;5010385;28;20080;-88
2021/12/23 08:11:08;;;;;;;27.55;15.90;;;0.80;99.90;;;;;;4992414;28;20077;-87
2021/12/23 08:13:35;;;;;;;27.05;16.48;;;0.80;99.90;;;;;;5009420;28;20052;-85
2021/12/23 08:16:01;;;;;;;27.33;17.08;;;0.90;99.90;;;;;;5007087;28;20088;-85
2021/12/23 08:18:31;;;;;;;29.60;16.60;;;0.80;99.90;;;;;;4995278;28;20116;-86
2021/12/23 08:20:57;;;;;;;26.92;16.83;;;0.90;99.90;;;;;;5005258;28;20034;-85
2021/12/23 08:23:24;;;;;;;29.15;16.25;;;0.80;99.90;;;;;;4994907;28;20045;-85
2021/12/23 08:25:50;;;;;;;28.10;17.08;;;2.10;99.90;;;;;;4994873;28;20041;-85
2021/12/23 08:28:16;;;;;;;28.17;16.20;;;1.20;99.90;;;;;;4994457;28;20041;-86
2021/12/23 08:30:42;;;;;;;28.13;16.42;;;0.90;99.90;;;;;;5010557;28;20084;-84
2021/12/23 08:33:08;;;;;;;27.85;16.42;;;1.30;99.90;;;;;;4998191;28;20136;-85
2021/12/23 08:35:35;;;;;;;26.13;15.45;;;0.80;99.90;;;;;;4994489;28;20064;-85
2021/12/23 08:38:01;;;;;;;25.65;15.82;;;0.80;99.90;;;;;;4994697;28;20136;-84
2021/12/23 08:40:28;;;;;;;26.38;16.00;;;0.80;99.90;;;;;;5008440;28;20120;-86
2021/12/23 08:42:59;;;;;;;26.58;15.80;;;0.80;99.90;;;;;;4978329;28;20037;-86
2021/12/23 08:45:28;;;;;;;26.02;15.80;;;0.80;99.90;;;;;;4987502;28;20100;-85
2021/12/23 08:47:57;;;;;;;29.25;16.55;;;1.60;99.90;;;;;;5010717;28;20095;-84
2021/12/23 08:50:26;;;;;;;27.48;16.55;;;0.80;99.90;;;;;;5026766;28;20049;-84
2021/12/23 08:52:52;;;;;;;27.40;15.82;;;0.80;99.90;;;;;;5010528;28;20046;-83
2021/12/23 08:55:18;;;;;;;28.40;16.48;;;1.60;99.90;;;;;;4993433;28;20424;-85
2021/12/23 08:57:44;;;;;;;25.98;16.08;;;0.80;99.90;;;;;;5003467;28;20110;-84
2021/12/23 09:00:14;;;;;;;28.02;17.05;;;0.80;99.90;;;;;;5023351;28;20080;-86
2021/12/23 09:02:40;;;;;;;26.67;16.67;;;0.80;99.90;;;;;;5009429;28;20064;-84
2021/12/23 09:05:06;;;;;;;27.75;16.58;;;;;;;;;;5011235;28;20499;-86
2021/12/23 09:07:32;;;;;;;27.20;16.02;;;0.80;99.90;;;;;;5010983;28;20037;-85
2021/12/23 09:09:58;;;;;;;27.50;17.17;;;2.40;99.90;;;;;;5027721;28;20447;-85
2021/12/23 09:12:24;;;;;;;27.25;16.60;;;0.70;99.90;;;;;;5010689;28;20042;-85
2021/12/23 09:14:50;;;;;;;28.73;16.85;;;0.80;99.90;;;;;;5009431;28;20042;-85
2021/12/23 09:17:16;;;;;;;29.67;17.27;;;2.30;99.90;;;;;;5010606;28;20092;-85
2021/12/23 09:19:43;;;;;;;27.33;17.02;;;0.80;99.90;;;;;;4994366;28;20041;-85
2021/12/23 09:22:09;;;;;;;29.00;17.20;;;0.80;99.90;;;;;;5007621;28;20494;-86
2021/12/23 09:24:38;;;;;;;29.00;16.85;;;2.30;99.90;;;;;;4996440;28;20045;-85
2021/12/23 09:34:57;;;;;;;29.83;17.45;;;0.90;99.90;;;;;;5014795;28;20498;-85
2021/12/23 09:37:23;;;;;;;29.40;16.92;;;0.80;99.90;;;;;;5029639;28;20072;-85
2021/12/23 09:39:54;;;;;;;28.17;17.45;;;0.80;99.90;;;;;;5012033;28;20034;-86
2021/12/23 09:42:31;;;;;;;29.27;17.95;;;1.40;99.90;;;;;;5011633;28;20098;-84
2021/12/23 09:45:01;;;;;;;31.27;18.92;;;0.80;99.90;;;;;;5007345;28;20049;-85
2021/12/23 09:47:29;;;;;;;28.95;16.55;;;0.80;99.90;;;;;;5013428;28;20037;-86
2021/12/23 09:49:57;;;;;;;28.95;18.08;;;1.20;99.90;;;;;;5013607;28;20041;-83
2021/12/23 09:52:24;;;;;;;33.70;19.23;;;0.80;99.90;;;;;;5014000;28;20401;-86
2021/12/23 09:54:52;;;;;;;32.30;18.88;;;0.80;99.90;;;;;;5012394;28;20041;-85
2021/12/23 09:57:18;;;;;;;30.50;18.13;;;0.70;99.90;;;;;;5012967;28;20033;-85
2021/12/23 09:59:44;;;;;;;33.22;20.13;;;0.80;99.90;;;;;;5029165;28;20156;-85
2021/12/23 10:02:09;;;;;;;31.63;19.52;;;2.10;99.90;;;;;;5029542;28;20116;-84
2021/12/23 10:04:35;;;;;;;30.48;18.10;;;0.80;99.90;;;;;;5013843;28;20041;-84
2021/12/23 10:07:02;;;;;;;35.80;20.13;;;1.20;99.90;;;;;;4980286;28;20055;-87
2021/12/23 10:10:09;;;;;;;34.38;19.52;;;0.80;99.90;;;;;;4997033;28;20048;-85
2021/12/23 10:31:47;;;;;;;38.60;22.67;;;0.80;99.90;;;;;;5013450;28;20486;-85
2021/12/23 10:37:15;;;;;;;38.90;21.85;;;0.80;99.90;;;;;;5010426;28;20080;-84
2021/12/23 10:40:05;;;;;;;42.53;23.58;;;0.80;99.90;;;;;;4996423;28;20038;-84
2021/12/23 10:42:32;;;;;;;39.10;23.08;;;0.80;99.90;;;;;;5013280;28;20064;-84
2021/12/23 10:45:07;;;;;;;42.83;23.48;;;0.80;99.90;;;;;;4979796;28;20103;-84
2021/12/23 10:48:02;;;;;;;44.55;25.35;;;0.90;99.90;;;;;;5013270;28;20115;-84
2021/12/23 10:53:57;;;;;;;44.25;24.25;;;0.80;99.90;;;;;;5013170;28;20108;-84
2021/12/23 10:59:26;;;;;;;42.85;24.45;;;0.90;99.90;;;;;;5008138;28;20049;-84
2021/12/23 11:02:03;;;;;;;45.45;24.50;;;0.90;99.90;;;;;;5010241;28;20044;-84
2021/12/23 11:04:35;;;;;;;51.35;26.85;;;0.90;99.90;;;;;;4996348;28;20044;-84
2021/12/23 11:07:14;;;;;;;46.25;25.17;;;0.90;99.90;;;;;;4997726;28;20188;-84
2021/12/23 11:10:09;;;;;;;45.72;25.17;;;0.90;99.90;;;;;;4975553;28;20525;-84
2021/12/23 11:30:12;;;;;;;42.55;23.77;;;2.00;99.90;;;;;;5010675;28;20037;-84
2021/12/23 11:35:33;;;;;;;45.47;25.25;;;1.00;99.90;;;;;;4986641;28;20037;-84
2021/12/23 11:37:57;;;;;;;47.17;24.77;;;1.00;99.90;;;;;;5012651;28;20069;-84
2021/12/23 11:45:26;;;;;;;50.90;26.23;;;1.00;99.90;;;;;;4996872;28;20127;-84
2021/12/23 11:47:53;;;;;;;50.95;27.08;;;1.60;99.90;;;;;;5012334;28;20076;-87
2021/12/23 11:50:29;;;;;;;50.33;26.35;;;1.00;99.90;;;;;;4996282;28;20041;-87
2021/12/23 11:52:55;;;;;;;51.45;25.77;;;1.00;99.90;;;;;;5009457;28;20042;-85
2021/12/23 11:55:21;;;;;;;53.17;27.20;;;1.00;99.90;;;;;;4995528;28;20429;-86
2021/12/23 11:57:48;;;;;;;52.08;28.05;;;2.10;99.90;;;;;;4994287;28;20083;-85
2021/12/23 12:00:21;;;;;;;46.03;25.80;;;0.80;99.90;;;;;;5011668;28;20541;-86
2021/12/23 12:03:05;;;;;;;51.65;27.90;;;1.00;99.90;;;;;;4978356;28;20052;-87
2021/12/23 12:05:32;;;;;;;;;;;1.00;99.90;;;;;;5000872;28;20085;-86
2021/12/23 12:08:13;;;;;;;50.03;25.15;;;1.00;99.90;;;;;;4995492;28;19963;-85
2021/12/23 12:10:41;;;;;;;49.15;27.10;;;1.00;99.90;;;;;;5010936;28;20518;-86
2021/12/23 12:13:10;;;;;;;56.00;26.83;;;1.00;99.90;;;;;;5010981;28;20042;-86
2021/12/23 12:15:39;;;;;;;51.47;27.08;;;1.00;99.90;;;;;;5027519;28;20655;-84
2021/12/23 12:18:25;;;;;;;53.92;27.27;;;1.10;99.90;;;;;;5027927;28;20525;-85
2021/12/23 12:21:00;;;;;;;52.83;26.85;;;2.00;99.90;;;;;;5017573;28;20064;-86
2021/12/23 12:23:39;;;;;;;49.50;25.73;;;1.80;99.90;;;;;;5011186;28;20041;-85
2021/12/23 12:26:26;;;;;;;50.85;26.77;;;1.10;99.90;;;;;;5010510;28;20052;-86
2021/12/23 12:28:51;;;;;;;51.15;26.13;;;1.20;99.90;;;;;;5011202;28;20045;-85
2021/12/23 12:31:21;;;;;;;50.20;26.27;;;1.10;99.90;;;;;;5028134;28;20104;-85
2021/12/23 12:34:07;;;;;;;48.83;26.60;;;1.20;99.90;;;;;;5010764;28;20046;-84
2021/12/23 12:36:40;;;;;;;47.83;26.73;;;1.20;99.90;;;;;;5024380;28;20159;-85
2021/12/23 12:39:09;;;;;;;49.72;25.83;;;1.30;99.90;;;;;;5010288;28;20033;-86
2021/12/23 12:41:37;;;;;;;48.47;26.05;;;1.20;99.90;;;;;;5009083;28;20076;-85
2021/12/23 12:44:18;;;;;;;45.45;25.40;;;1.30;99.90;;;;;;4992860;28;20099;-84
2021/12/23 12:47:04;;;;;;;51.33;25.85;;;1.30;99.90;;;;;;5010368;28;20041;-85
2021/12/23 12:49:33;;;;;;;50.15;25.42;;;2.60;99.90;;;;;;5026006;28;20045;-86
2021/12/23 12:52:24;;;;;;;55.55;26.73;;;2.40;99.90;;;;;;5010199;28;20041;-86
2021/12/23 12:55:09;;;;;;;48.22;26.38;;;1.40;99.90;;;;;;5009748;28;20037;-86
2021/12/23 12:57:41;;;;;;;57.03;28.10;;;1.40;99.90;;;;;;5028294;28;20134;-90
2021/12/23 13:00:37;;;;;;;48.33;26.27;;;3.30;99.90;;;;;;5012422;28;20033;-84
2021/12/23 13:03:03;;;;;;;54.78;27.00;;;1.40;99.90;;;;;;5027315;28;20045;-85
2021/12/23 13:05:31;;;;;;;55.33;26.67;;;1.40;99.90;;;;;;5013604;28;20076;-88
2021/12/23 13:07:57;;;;;;;53.58;27.10;;;0.90;99.90;;;;;;5014117;28;20053;-85
2021/12/23 13:10:32;;;;;;;51.50;26.65;;;1.40;99.90;;;;;;5014885;28;20518;-86
2021/12/23 13:13:05;;;;;;;55.97;27.85;;;2.20;99.90;;;;;;5012620;28;20056;-86
2021/12/23 13:15:41;;;;;;;53.55;27.30;;;1.40;99.90;;;;;;5011672;28;20041;-86
2021/12/23 13:18:08;;;;;;;52.70;27.15;;;1.40;99.90;;;;;;5006061;28;20125;-85
2021/12/23 13:20:40;;;;;;;50.20;26.30;;;1.40;99.90;;;;;;5013498;28;20037;-85
2021/12/23 13:23:20;;;;;;;49.55;27.00;;;1.40;99.90;;;;;;5037852;28;20046;-85
2021/12/23 13:25:51;;;;;;;52.97;26.58;;;1.00;99.90;;;;;;5005315;28;20121;-87
2021/12/23 13:28:29;;;;;;;54.78;27.23;;;1.40;99.90;;;;;;5009049;28;20045;-86
2021/12/23 13:30:56;;;;;;;57.63;28.23;;;1.40;99.90;;;;;;5013641;28;20040;-88
2021/12/23 13:33:22;;;;;;;58.85;28.08;;;1.40;99.90;;;;;;4981144;28;20046;-86
2021/12/23 13:35:48;;;;;;;61.33;28.88;;;2.90;99.90;;;;;;5017300;28;20037;-87
2021/12/23 13:38:33;;;;;;;50.60;26.35;;;3.10;99.90;;;;;;5013169;28;20052;-85
2021/12/23 13:41:18;;;;;;;52.85;27.35;;;1.40;99.90;;;;;;5010476;28;20029;-86
2021/12/23 13:43:45;;;;;;;54.70;27.67;;;1.40;99.90;;;;;;5029789;28;20034;-89
2021/12/23 13:46:10;;;;;;;57.47;27.15;;;3.10;99.90;;;;;;5012879;28;20104;-86
2021/12/23 13:48:51;;;;;;;54.72;27.50;;;1.40;99.90;;;;;;4994049;28;20045;-85
2021/12/23 13:51:20;;;;;;;53.88;26.42;;;1.40;99.90;;;;;;5008518;28;20038;-87
2021/12/23 13:53:45;;;;;;;52.10;26.52;;;1.40;99.90;;;;;;5012646;28;20033;-86
2021/12/23 13:56:16;;;;;;;59.72;27.75;;;1.40;99.90;;;;;;5012671;28;20041;-85